Time;durP1;ratioP1;P1;durP2;ratioP2;P2;SDS_P1;SDS_P2;PMS_P1;PMS_P2;Temp;Humidity;BMP_temperature;BMP_pressure;BME280_temperature;BME280_humidity;BME280_pressure;Samples;Min_cycle;Max_cycle;Signal;HPM_P1;HPM_P2
2023/08/18 00:00:36;;;;;;;13.30;7.05;;;;;;;21.52;100.00;99742.91;12230067;19;20117;-84
2023/08/18 00:04:38;;;;;;;12.37;6.57;;;;;;;21.50;100.00;99748.81;12231868;19;20031;-84
2023/08/18 00:08:39;;;;;;;11.63;7.03;;;;;;;21.49;100.00;99741.56;12231221;19;20018;-83
2023/08/18 00:12:41;;;;;;;15.65;7.18;;;;;;;21.43;100.00;99733.66;12230242;19;20011;-83
2023/08/18 00:16:43;;;;;;;15.30;7.87;;;;;;;21.42;100.00;99727.22;12228647;19;20106;-83
2023/08/18 00:20:45;;;;;;;16.30;8.32;;;;;;;21.39;100.00;99719.47;12229830;19;20038;-84
2023/08/18 00:24:47;;;;;;;13.47;7.80;;;;;;;21.38;100.00;99724.22;12231049;19;20015;-83
2023/08/18 00:28:49;;;;;;;13.87;8.77;;;;;;;21.38;100.00;99726.19;12232560;19;20007;-83
2023/08/18 00:32:51;;;;;;;17.77;8.50;;;;;;;21.37;100.00;99728.19;12228791;19;20015;-84
2023/08/18 00:36:54;;;;;;;16.30;8.82;;;;;;;21.39;100.00;99725.88;12223871;19;20022;-83
2023/08/18 00:40:56;;;;;;;16.85;8.60;;;;;;;21.38;100.00;99724.22;12227287;19;20019;-84
2023/08/18 00:44:57;;;;;;;12.00;9.27;;;;;;;21.42;100.00;99720.75;12229694;19;20018;-83
2023/08/18 00:49:04;;;;;;;16.55;8.23;;;;;;;21.39;100.00;99716.66;12233139;19;20027;-83
2023/08/18 00:53:07;;;;;;;18.15;9.68;;;;;;;21.38;100.00;99720.59;12226527;19;20395;-83
2023/08/18 00:57:11;;;;;;;17.52;9.55;;;;;;;21.39;100.00;99722.25;12229842;19;20036;-84
2023/08/18 01:01:13;;;;;;;14.63;9.27;;;;;;;21.39;100.00;99719.47;12231199;19;20031;-83
2023/08/18 01:05:15;;;;;;;16.15;8.68;;;;;;;21.45;100.00;99720.13;12229833;19;20010;-83
2023/08/18 01:09:16;;;;;;;14.27;8.73;;;;;;;21.44;100.00;99719.28;12238109;19;20026;-84
2023/08/18 01:13:31;;;;;;;17.70;9.27;;;;;;;21.48;100.00;99716.69;12228521;19;20014;-83
2023/08/18 01:17:43;;;;;;;15.77;8.50;;;;;;;21.50;100.00;99708.75;12229415;19;20018;-84
2023/08/18 01:21:48;;;;;;;17.13;9.45;;;;;;;21.45;100.00;99714.53;12226487;19;20134;-83
2023/08/18 01:25:50;;;;;;;13.10;8.98;;;;;;;21.43;100.00;99712.03;12228214;19;20123;-83
2023/08/18 01:29:52;;;;;;;13.35;8.63;;;;;;;21.45;100.00;99709.75;12235627;19;20465;-83
2023/08/18 01:34:04;;;;;;;13.02;8.38;;;;;;;21.44;100.00;99707.25;12224416;19;20011;-83
2023/08/18 01:38:07;;;;;;;10.40;7.95;;;;;;;21.41;100.00;99702.31;12224730;19;20017;-84
2023/08/18 01:42:09;;;;;;;12.88;8.98;;;;;;;21.38;100.00;99704.59;12225136;19;20426;-84
2023/08/18 01:46:11;;;;;;;11.13;8.05;;;;;;;21.32;100.00;99699.44;12227080;19;20031;-84
2023/08/18 01:50:13;;;;;;;12.63;8.48;;;;;;;21.27;100.00;99694.00;12228205;19;19999;-84
2023/08/18 01:54:15;;;;;;;14.32;9.23;;;;;;;21.25;100.00;99682.28;12225845;19;20105;-84
2023/08/18 01:58:17;;;;;;;12.63;8.82;;;;;;;21.24;100.00;99681.47;12228240;19;20011;-84
2023/08/18 02:02:19;;;;;;;14.88;9.23;;;;;;;21.25;100.00;99673.88;12222814;19;20597;-83
2023/08/18 02:06:21;;;;;;;19.43;9.90;;;;;;;21.18;100.00;99671.53;12226265;19;20010;-83
2023/08/18 02:10:23;;;;;;;13.80;9.77;;;;;;;21.12;100.00;99664.44;12234057;19;20022;-84
2023/08/18 02:14:24;;;;;;;16.80;9.82;;;;;;;21.08;100.00;99661.44;12227185;19;20386;-84
2023/08/18 02:18:27;;;;;;;13.43;9.63;;;;;;;21.09;100.00;99653.84;12238074;19;20019;-84
2023/08/18 02:22:29;;;;;;;14.52;8.98;;;;;;;21.14;100.00;99657.34;12234740;19;20011;-84
2023/08/18 02:26:31;;;;;;;16.67;9.75;;;;;;;21.11;100.00;99655.19;12236586;19;20502;-84
2023/08/18 02:30:33;;;;;;;12.80;9.55;;;;;;;21.08;100.00;99655.81;12242470;19;20015;-83
2023/08/18 02:34:35;;;;;;;16.45;10.23;;;;;;;21.08;100.00;99652.22;12237106;19;20006;-84
2023/08/18 02:38:37;;;;;;;14.23;9.53;;;;;;;21.07;100.00;99654.19;12236354;19;20015;-83
2023/08/18 02:42:39;;;;;;;18.20;10.10;;;;;;;21.07;100.00;99657.00;12233326;19;20006;-84
2023/08/18 02:46:41;;;;;;;22.20;10.65;;;;;;;21.05;100.00;99644.44;12236097;19;20022;-83
2023/08/18 02:50:43;;;;;;;14.68;10.38;;;;;;;21.00;100.00;99650.19;12236945;19;20018;-84
2023/08/18 02:54:45;;;;;;;14.95;10.02;;;;;;;20.99;100.00;99651.34;12238114;19;20006;-84
2023/08/18 02:58:47;;;;;;;15.63;10.65;;;;;;;20.92;100.00;99644.25;12235960;19;20031;-83
2023/08/18 03:02:49;;;;;;;15.35;10.13;;;;;;;20.85;100.00;99648.63;12235297;19;20494;-84
2023/08/18 03:06:52;;;;;;;14.18;10.80;;;;;;;20.81;100.00;99647.66;12234837;19;20082;-84
2023/08/18 03:10:56;;;;;;;12.95;10.05;;;;;;;20.80;100.00;99658.03;12234643;19;20007;-84
2023/08/18 03:14:57;;;;;;;16.95;10.32;;;;;;;20.78;100.00;99660.31;12234037;19;20014;-83
2023/08/18 03:18:59;;;;;;;14.93;9.10;;;;;;;20.78;100.00;99660.31;12234729;19;20023;-84
2023/08/18 03:23:02;;;;;;;14.52;10.05;;;;;;;20.81;100.00;99662.47;12229505;19;20010;-84
2023/08/18 03:27:04;;;;;;;17.03;10.03;;;;;;;20.76;100.00;99672.97;12230636;19;20014;-83
2023/08/18 03:31:07;;;;;;;19.75;10.50;;;;;;;20.76;100.00;99668.19;12233524;19;20039;-84
2023/08/18 03:35:09;;;;;;;15.50;9.63;;;;;;;20.69;100.00;99667.84;12234151;19;20003;-83
2023/08/18 03:39:12;;;;;;;13.07;10.57;;;;;;;20.73;100.00;99670.81;12231397;19;20026;-83
2023/08/18 03:43:14;;;;;;;12.95;10.10;;;;;;;20.70;100.00;99667.53;12230054;19;20010;-84
2023/08/18 03:47:16;;;;;;;13.30;9.63;;;;;;;20.67;100.00;99664.53;12233181;19;20534;-83
2023/08/18 03:51:18;;;;;;;14.53;10.10;;;;;;;20.67;100.00;99667.31;12232859;19;20021;-84
2023/08/18 03:55:19;;;;;;;17.13;10.75;;;;;;;20.62;100.00;99682.31;12233754;19;20791;-84
2023/08/18 03:59:22;;;;;;;19.30;10.80;;;;;;;20.63;100.00;99680.31;12232598;19;20089;-84
2023/08/18 04:03:24;;;;;;;14.60;9.40;;;;;;;20.63;100.00;99681.16;12230465;19;20018;-84
2023/08/18 04:07:26;;;;;;;18.02;9.90;;;;;;;20.64;100.00;99677.22;12232358;19;20014;-83
2023/08/18 04:11:28;;;;;;;;;;;;;;;20.56;100.00;99678.00;12231064;19;20049;-84
2023/08/18 04:15:30;;;;;;;18.90;10.13;;;;;;;20.53;100.00;99680.59;12230191;19;19918;-84
2023/08/18 04:19:32;;;;;;;15.00;10.10;;;;;;;20.50;100.00;99682.03;12231791;19;20010;-84
2023/08/18 04:23:34;;;;;;;18.57;10.17;;;;;;;20.44;100.00;99684.13;12228522;19;20482;-83
2023/08/18 04:27:36;;;;;;;15.80;10.43;;;;;;;20.42;100.00;99685.59;12231526;19;20548;-84
2023/08/18 04:31:38;;;;;;;16.95;10.05;;;;;;;20.43;100.00;99698.44;12235336;19;20021;-84
2023/08/18 04:35:46;;;;;;;16.13;10.60;;;;;;;20.45;100.00;99690.56;12230184;19;20015;-84
2023/08/18 04:39:48;;;;;;;16.37;10.50;;;;;;;20.42;100.00;99696.78;12226353;19;20018;-84
2023/08/18 04:43:51;;;;;;;17.73;11.40;;;;;;;20.36;100.00;99700.84;12227367;19;20279;-84
2023/08/18 04:47:57;;;;;;;16.80;11.30;;;;;;;20.33;100.00;99701.50;12229883;19;20030;-84
2023/08/18 04:52:01;;;;;;;15.10;10.55;;;;;;;20.35;100.00;99691.63;12231433;19;20808;-84
2023/08/18 04:56:03;;;;;;;18.70;11.68;;;;;;;20.41;100.00;99697.94;12229112;19;20021;-84
2023/08/18 05:00:06;;;;;;;19.02;11.15;;;;;;;20.38;100.00;99696.59;12229890;19;20031;-83
2023/08/18 05:04:08;;;;;;;18.08;10.07;;;;;;;20.42;100.00;99688.38;12228373;19;20006;-84
2023/08/18 05:08:11;;;;;;;14.32;10.10;;;;;;;20.41;100.00;99690.38;12229738;19;20070;-83
2023/08/18 05:12:12;;;;;;;16.45;10.57;;;;;;;20.51;100.00;99694.06;12232649;19;20010;-84
2023/08/18 05:16:14;;;;;;;16.27;10.23;;;;;;;20.52;100.00;99696.53;12229140;19;20047;-84
2023/08/18 05:20:16;;;;;;;15.23;10.63;;;;;;;20.60;100.00;99689.38;12228466;19;20010;-84
2023/08/18 05:24:17;;;;;;;11.70;8.80;;;;;;;20.64;100.00;99688.41;12231181;19;20351;-84
2023/08/18 05:28:23;;;;;;;18.20;9.63;;;;;;;20.66;100.00;99688.91;12231007;19;20066;-84
2023/08/18 05:32:25;;;;;;;12.80;9.20;;;;;;;20.77;100.00;99688.66;12228866;19;20022;-84
2023/08/18 05:36:27;;;;;;;13.45;8.45;;;;;;;20.87;100.00;99693.97;12227924;19;20014;-84
2023/08/18 05:40:29;;;;;;;12.60;8.38;;;;;;;20.92;100.00;99697.47;12228692;19;20173;-84
2023/08/18 05:44:31;;;;;;;13.93;8.15;;;;;;;20.97;100.00;99695.66;12229767;19;20817;-84
2023/08/18 05:48:33;;;;;;;14.13;8.55;;;;;;;21.04;100.00;99707.25;12230953;19;20011;-84
2023/08/18 05:52:34;;;;;;;13.63;7.82;;;;;;;21.07;100.00;99712.19;12238036;19;20021;-83
2023/08/18 05:56:36;;;;;;;13.77;7.67;;;;;;;21.15;100.00;99706.63;12242234;19;20013;-83
2023/08/18 06:00:38;;;;;;;10.07;7.20;;;;;;;21.16;100.00;99721.47;12238453;19;20753;-85
2023/08/18 06:04:40;;;;;;;10.48;7.32;;;;;;;21.25;100.00;99725.13;12240608;19;20454;-84
2023/08/18 06:08:42;;;;;;;9.18;7.35;;;;;;;21.29;100.00;99725.31;12242626;19;20015;-84
2023/08/18 06:12:44;;;;;;;10.95;7.70;;;;;;;21.38;100.00;99724.22;12237767;19;20010;-83
2023/08/18 06:16:45;;;;;;;9.47;7.00;;;;;;;21.44;100.00;99729.69;12239087;19;20014;-83
2023/08/18 06:20:47;;;;;;;10.10;6.97;;;;;;;21.48;100.00;99727.91;12234783;19;20649;-83
2023/08/18 06:24:49;;;;;;;12.87;7.60;;;;;;;21.55;100.00;99731.88;12237801;19;20030;-83
2023/08/18 06:28:51;;;;;;;9.65;6.60;;;;;;;21.64;100.00;99728.28;12238266;19;20074;-84
2023/08/18 06:32:52;;;;;;;11.35;6.20;;;;;;;21.71;100.00;99731.41;12233438;19;20025;-83
2023/08/18 06:36:54;;;;;;;12.87;6.23;;;;;;;21.89;100.00;99726.66;12235943;19;20442;-84
2023/08/18 06:40:56;;;;;;;8.27;5.72;;;;;;;22.02;100.00;99725.69;12235820;19;20010;-83
2023/08/18 06:44:57;;;;;;;9.77;6.50;;;;;;;22.14;100.00;99731.50;12237704;19;20073;-83
2023/08/18 06:49:00;;;;;;;9.88;5.80;;;;;;;22.24;100.00;99721.94;12241048;19;20098;-84
2023/08/18 06:53:03;;;;;;;9.02;5.88;;;;;;;22.40;100.00;99730.69;12233426;19;20019;-83
2023/08/18 06:57:05;;;;;;;10.10;6.28;;;;;;;22.59;100.00;99733.16;12237220;19;20461;-83
2023/08/18 07:01:06;;;;;;;9.27;6.63;;;;;;;22.79;100.00;99745.69;12232957;19;20015;-83
2023/08/18 07:05:08;;;;;;;7.43;5.63;;;;;;;23.01;100.00;99750.31;12235229;19;20011;-83
2023/08/18 07:09:13;;;;;;;13.10;6.20;;;;;;;23.18;100.00;99748.25;12235209;19;20015;-83
2023/08/18 07:13:14;;;;;;;10.10;5.90;;;;;;;23.37;100.00;99739.41;12232893;19;20461;-83
2023/08/18 07:17:17;;;;;;;8.57;5.73;;;;;;;23.57;100.00;99746.28;12235226;19;20014;-84
2023/08/18 07:21:19;;;;;;;;;;;;;;;23.78;100.00;99752.00;12234359;19;20023;-83
2023/08/18 07:25:21;;;;;;;9.10;5.50;;;;;;;24.05;100.00;99750.66;12235272;19;19930;-84
2023/08/18 07:29:23;;;;;;;9.93;5.25;;;;;;;24.31;100.00;99760.91;12235962;19;20027;-83
2023/08/18 07:33:25;;;;;;;7.80;5.05;;;;;;;24.51;100.00;99751.66;12230802;19;20334;-83
2023/08/18 07:37:27;;;;;;;8.40;5.53;;;;;;;24.78;100.00;99764.34;12232046;19;20110;-83
2023/08/18 07:41:32;;;;;;;11.45;5.45;;;;;;;25.08;100.00;99760.56;12232248;19;20011;-83
2023/08/18 07:45:33;;;;;;;10.77;5.00;;;;;;;25.26;100.00;99756.41;12235550;19;20486;-83
2023/08/18 07:49:35;;;;;;;9.23;4.90;;;;;;;25.51;100.00;99759.25;12236236;19;20023;-83
2023/08/18 07:53:37;;;;;;;7.53;5.17;;;;;;;25.72;100.00;99757.13;12229609;19;20018;-83
2023/08/18 07:57:39;;;;;;;7.85;5.15;;;;;;;26.01;100.00;99761.75;12232666;19;20074;-83
2023/08/18 08:01:41;;;;;;;9.25;4.53;;;;;;;26.18;100.00;99765.50;12230071;19;20012;-83
2023/08/18 08:05:43;;;;;;;17.30;11.80;;;;;;;26.34;99.75;99764.38;12231583;19;20878;-83
2023/08/18 08:09:46;;;;;;;8.02;5.30;;;;;;;26.56;97.60;99767.88;12231195;19;20331;-83
2023/08/18 08:13:48;;;;;;;8.05;4.82;;;;;;;26.72;95.46;99771.59;12228442;19;20690;-83
2023/08/18 08:17:51;;;;;;;7.50;4.80;;;;;;;26.99;94.38;99766.28;12233442;19;20019;-83
2023/08/18 08:21:52;;;;;;;;;;;;;;;27.08;93.19;99768.94;12231096;19;20489;-83
2023/08/18 08:25:54;;;;;;;9.00;4.60;;;;;;;27.38;90.00;99769.38;12231102;19;19962;-83
2023/08/18 08:29:56;;;;;;;6.55;4.78;;;;;;;27.58;86.00;99768.28;12230990;19;20402;-83
2023/08/18 08:34:03;;;;;;;6.43;4.70;;;;;;;27.75;88.37;99769.91;12227533;19;20022;-83
2023/08/18 08:38:05;;;;;;;;;;;;;;;27.81;85.61;99764.81;12229073;19;20023;-83
2023/08/18 08:42:08;;;;;;;8.40;4.50;;;;;;;28.06;84.14;99768.28;12226942;19;19974;-83
2023/08/18 08:46:11;;;;;;;9.68;4.93;;;;;;;28.08;80.92;99758.22;12228864;19;20018;-83
2023/08/18 08:50:17;;;;;;;9.93;5.10;;;;;;;28.24;80.51;99761.00;12228897;19;20021;-83
2023/08/18 08:54:22;;;;;;;8.73;4.80;;;;;;;28.40;82.58;99766.59;12228402;19;20050;-83
2023/08/18 08:58:24;;;;;;;7.97;4.45;;;;;;;28.57;80.37;99766.22;12230187;19;20022;-83
2023/08/18 09:02:26;;;;;;;;;;;;;;;28.73;79.37;99765.31;12229541;19;20014;-82
2023/08/18 09:06:28;;;;;;;6.93;4.10;;;;;;;28.70;72.41;99758.38;12229686;19;19911;-83
2023/08/18 09:10:30;;;;;;;8.23;5.00;;;;;;;28.94;71.64;99757.22;12228345;19;20011;-83
2023/08/18 09:14:37;;;;;;;9.20;4.72;;;;;;;29.10;69.95;99751.50;12227738;19;20046;-83
2023/08/18 09:18:39;;;;;;;6.97;4.70;;;;;;;29.35;70.34;99766.13;12229743;19;20342;-82
2023/08/18 09:22:41;;;;;;;9.90;4.28;;;;;;;29.45;67.96;99759.84;12226418;19;20014;-83
2023/08/18 09:26:47;;;;;;;6.55;3.92;;;;;;;29.56;67.53;99757.19;12236040;19;20023;-83
2023/08/18 09:30:48;;;;;;;9.05;4.25;;;;;;;29.65;69.28;99756.94;12241650;19;20022;-83
2023/08/18 09:34:56;;;;;;;5.60;4.00;;;;;;;29.79;66.48;99756.38;12241524;19;20331;-83
2023/08/18 09:39:04;;;;;;;5.07;4.28;;;;;;;29.85;66.33;99749.97;12238821;19;20367;-83
2023/08/18 09:43:05;;;;;;;8.45;3.95;;;;;;;30.03;64.59;99741.72;12236849;19;20007;-83
2023/08/18 09:47:09;;;;;;;12.63;3.97;;;;;;;30.13;64.98;99737.41;12239289;19;20102;-83
2023/08/18 09:51:12;;;;;;;7.80;4.28;;;;;;;30.32;65.75;99745.84;12237824;19;20367;-83
2023/08/18 09:55:17;;;;;;;6.25;3.83;;;;;;;30.55;65.23;99739.22;12240403;19;20014;-83
2023/08/18 09:59:25;;;;;;;9.60;4.80;;;;;;;30.66;62.97;99732.47;12239198;19;20015;-83
2023/08/18 10:03:30;;;;;;;5.75;4.00;;;;;;;30.73;63.17;99737.44;12234678;19;20339;-83
2023/08/18 10:07:33;;;;;;;8.52;4.82;;;;;;;30.72;61.02;99735.78;12236952;19;20015;-83
2023/08/18 10:11:35;;;;;;;7.18;3.80;;;;;;;30.90;61.34;99727.47;12241846;19;20007;-83
2023/08/18 10:15:53;;;;;;;6.65;4.03;;;;;;;31.11;59.33;99721.19;12238380;19;20031;-83
2023/08/18 10:19:56;;;;;;;5.95;4.30;;;;;;;31.24;60.08;99716.88;12239170;19;20018;-83
2023/08/18 10:24:02;;;;;;;8.75;4.80;;;;;;;31.43;60.12;99712.19;12234725;19;20458;-83
2023/08/18 10:28:07;;;;;;;5.68;3.90;;;;;;;31.43;58.12;99709.34;12240571;19;20018;-83
2023/08/18 10:32:11;;;;;;;9.10;4.28;;;;;;;31.39;55.49;99712.16;12235222;19;20667;-83
2023/08/18 10:36:19;;;;;;;7.35;3.83;;;;;;;31.31;56.08;99705.53;12234216;19;20382;-83
2023/08/18 10:40:29;;;;;;;7.75;4.00;;;;;;;31.45;55.58;99709.75;12233831;19;20024;-83
2023/08/18 10:44:31;;;;;;;9.15;4.10;;;;;;;31.74;56.99;99699.41;12238957;19;20033;-84
2023/08/18 10:48:33;;;;;;;5.20;3.75;;;;;;;32.12;53.89;99695.19;12240233;19;20027;-83
2023/08/18 10:52:35;;;;;;;6.07;3.60;;;;;;;32.25;52.09;99701.38;12235266;19;20038;-83
2023/08/18 10:56:37;;;;;;;6.53;4.75;;;;;;;32.54;51.29;99690.94;12237251;19;20789;-83
2023/08/18 11:00:41;;;;;;;12.10;3.92;;;;;;;32.83;50.15;99682.47;12235378;19;20011;-84
2023/08/18 11:04:43;;;;;;;7.88;3.88;;;;;;;32.99;50.87;99682.94;12239644;19;20018;-84
2023/08/18 11:08:45;;;;;;;6.28;3.50;;;;;;;33.07;49.58;99675.19;12236469;19;20082;-83
2023/08/18 11:12:49;;;;;;;7.40;4.05;;;;;;;33.18;49.88;99673.19;12232501;19;20019;-83
2023/08/18 11:16:54;;;;;;;6.10;3.70;;;;;;;33.47;48.91;99679.72;12235738;19;20435;-83
2023/08/18 11:20:56;;;;;;;5.93;3.95;;;;;;;33.74;48.33;99682.16;12235546;19;20014;-83
2023/08/18 11:24:58;;;;;;;6.07;3.85;;;;;;;33.83;48.37;99671.13;12234844;19;20017;-83
2023/08/18 11:29:01;;;;;;;8.70;5.50;;;;;;;33.67;48.09;99671.53;12236119;19;20101;-84
2023/08/18 11:33:03;;;;;;;6.43;3.70;;;;;;;33.55;49.43;99669.13;12234456;19;20007;-83
2023/08/18 11:37:10;;;;;;;5.72;3.72;;;;;;;33.84;48.25;99669.09;12234468;19;20085;-84
2023/08/18 11:41:12;;;;;;;6.35;4.53;;;;;;;34.32;48.07;99666.50;12237198;19;20014;-83
2023/08/18 11:45:18;;;;;;;;;;;;;;;34.54;47.12;99663.56;12235606;19;20023;-83
2023/08/18 11:49:20;;;;;;;7.38;5.15;;;;;;;34.73;47.17;99656.53;12235383;19;19915;-84
2023/08/18 11:53:26;;;;;;;8.35;5.40;;;;;;;35.37;45.63;99654.03;12233151;19;20006;-83
2023/08/18 11:57:28;;;;;;;6.10;5.45;;;;;;;36.20;45.63;99647.50;12236742;19;20466;-83
2023/08/18 12:01:36;;;;;;;7.50;5.90;;;;;;;36.49;44.19;99624.97;12235123;19;20031;-84
2023/08/18 12:05:38;;;;;;;7.50;5.13;;;;;;;36.89;42.21;99628.94;12231751;19;20473;-84
2023/08/18 12:09:40;;;;;;;6.55;4.93;;;;;;;37.09;38.39;99620.44;12236571;19;20018;-84
2023/08/18 12:13:42;;;;;;;8.10;5.03;;;;;;;37.35;39.85;99615.88;12232404;19;20105;-84
2023/08/18 12:17:44;;;;;;;6.25;4.40;;;;;;;37.61;38.82;99614.22;12235759;19;20010;-84
2023/08/18 12:21:46;;;;;;;7.20;3.85;;;;;;;37.93;36.57;99618.56;12232084;19;20011;-84
2023/08/18 12:25:48;;;;;;;6.07;4.20;;;;;;;38.56;35.57;99613.97;12236276;19;20077;-84
2023/08/18 12:29:50;;;;;;;4.93;3.83;;;;;;;39.29;34.43;99612.63;12235642;19;20024;-84
2023/08/18 12:33:52;;;;;;;5.13;3.50;;;;;;;39.71;32.52;99612.75;12232827;19;20465;-83
2023/08/18 12:37:54;;;;;;;4.82;3.30;;;;;;;40.20;31.63;99611.84;12233324;19;20023;-84
2023/08/18 12:41:56;;;;;;;6.20;2.55;;;;;;;40.88;30.48;99607.69;12233195;19;20006;-84
2023/08/18 12:45:58;;;;;;;4.88;2.45;;;;;;;41.42;27.95;99597.22;12238023;19;20388;-85
2023/08/18 12:50:00;;;;;;;4.97;2.50;;;;;;;41.49;26.15;99591.19;12236204;19;20015;-83
2023/08/18 12:54:03;;;;;;;6.55;2.42;;;;;;;41.88;25.83;99606.31;12235472;19;20010;-84
2023/08/18 12:58:05;;;;;;;3.75;2.20;;;;;;;42.21;25.64;99595.19;12236729;19;20003;-85
2023/08/18 13:02:07;;;;;;;5.90;2.53;;;;;;;42.65;26.32;99605.91;12231438;19;20032;-84
2023/08/18 13:06:09;;;;;;;5.80;2.95;;;;;;;43.10;25.79;99602.38;12238106;19;20015;-84
2023/08/18 13:10:11;;;;;;;7.50;3.40;;;;;;;43.45;25.29;99599.28;12239888;19;20018;-85
2023/08/18 13:14:12;;;;;;;4.30;2.83;;;;;;;43.55;23.76;99603.00;12232789;19;20031;-84
2023/08/18 13:18:14;;;;;;;4.38;2.28;;;;;;;44.11;23.10;99599.63;12237857;19;20845;-85
2023/08/18 13:22:16;;;;;;;3.60;2.10;;;;;;;44.38;22.09;99594.28;12233761;19;20031;-84
2023/08/18 13:26:17;;;;;;;3.00;2.00;;;;;;;44.55;21.82;99595.53;12234569;19;20019;-85
2023/08/18 13:30:19;;;;;;;3.70;2.45;;;;;;;45.00;21.29;99588.72;12236120;19;20018;-84
2023/08/18 13:34:21;;;;;;;3.83;2.05;;;;;;;45.09;20.81;99589.97;12237116;19;20010;-84
2023/08/18 13:38:23;;;;;;;2.75;2.05;;;;;;;45.30;21.08;99576.47;12233102;19;20019;-84
2023/08/18 13:42:25;;;;;;;4.38;2.10;;;;;;;45.32;22.47;99583.41;12231375;19;20014;-84
2023/08/18 13:46:26;;;;;;;4.63;2.17;;;;;;;45.45;20.38;99581.03;12229165;19;20015;-84
2023/08/18 13:50:28;;;;;;;6.63;2.25;;;;;;;45.34;20.79;99580.00;12234031;19;20006;-84
2023/08/18 13:54:30;;;;;;;6.72;2.50;;;;;;;45.60;20.67;99578.19;12234265;19;20032;-84
2023/08/18 13:58:32;;;;;;;4.22;2.20;;;;;;;45.92;20.66;99570.66;12235919;19;20032;-85
2023/08/18 14:02:34;;;;;;;3.17;2.28;;;;;;;46.35;19.90;99568.31;12231719;19;20014;-85
2023/08/18 14:06:37;;;;;;;5.20;2.00;;;;;;;46.31;19.69;99566.88;12232678;19;20035;-84
2023/08/18 14:10:38;;;;;;;4.78;2.15;;;;;;;46.35;19.27;99568.31;12235391;19;20014;-85
2023/08/18 14:14:40;;;;;;;4.07;2.33;;;;;;;45.84;20.02;99563.59;12244897;19;20366;-84
2023/08/18 14:18:42;;;;;;;3.72;2.10;;;;;;;45.09;20.01;99560.91;12246773;19;20027;-85
2023/08/18 14:22:46;;;;;;;5.75;2.40;;;;;;;43.59;21.78;99571.75;12241886;19;20014;-84
2023/08/18 14:26:48;;;;;;;4.10;1.92;;;;;;;41.65;22.81;99565.00;12243908;19;20028;-84
2023/08/18 14:30:50;;;;;;;5.25;2.42;;;;;;;40.52;23.74;99558.91;12243093;19;20023;-84
2023/08/18 14:34:55;;;;;;;6.57;2.58;;;;;;;39.80;24.19;99563.94;12244977;19;20006;-84
2023/08/18 14:38:57;;;;;;;5.72;2.47;;;;;;;39.73;24.43;99552.56;12242411;19;20011;-84
2023/08/18 14:42:59;;;;;;;6.00;2.30;;;;;;;39.81;24.10;99550.31;12241825;19;20094;-84
2023/08/18 14:47:17;;;;;;;7.28;2.72;;;;;;;38.80;24.43;99552.09;12241718;19;20014;-84
2023/08/18 14:51:19;;;;;;;4.45;2.97;;;;;;;38.11;25.98;99556.97;12241514;19;20014;-84
2023/08/18 14:55:21;;;;;;;4.13;2.42;;;;;;;37.96;26.07;99553.59;12242776;19;20026;-84
2023/08/18 14:59:22;;;;;;;4.18;2.38;;;;;;;38.14;26.34;99538.84;12243218;19;20027;-83
2023/08/18 15:03:24;;;;;;;5.97;2.45;;;;;;;37.78;26.58;99540.38;12240339;19;20023;-84
2023/08/18 15:07:26;;;;;;;6.30;2.78;;;;;;;37.27;27.74;99533.13;12236379;19;20011;-83
2023/08/18 15:11:28;;;;;;;5.82;2.90;;;;;;;36.67;28.58;99542.31;12241543;19;20018;-83
2023/08/18 15:15:29;;;;;;;4.50;2.90;;;;;;;36.13;29.24;99547.22;12238163;19;20576;-83
2023/08/18 15:19:31;;;;;;;6.78;3.13;;;;;;;35.76;29.25;99538.22;12239820;19;20015;-84
2023/08/18 15:23:33;;;;;;;6.25;2.20;;;;;;;35.65;29.69;99537.53;12233276;19;20482;-84
2023/08/18 15:27:35;;;;;;;5.15;2.78;;;;;;;35.47;30.19;99542.63;12240916;19;20018;-84
2023/08/18 15:31:36;;;;;;;5.03;2.50;;;;;;;35.05;30.43;99539.78;12240543;19;20022;-83
2023/08/18 15:35:42;;;;;;;4.03;2.17;;;;;;;34.78;30.46;99528.13;12241937;19;20010;-84
2023/08/18 15:39:44;;;;;;;5.63;2.22;;;;;;;34.57;30.81;99536.88;12240250;19;20121;-83
2023/08/18 15:43:46;;;;;;;5.78;2.50;;;;;;;34.36;32.51;99541.47;12238920;19;20027;-84
2023/08/18 15:47:48;;;;;;;3.85;2.33;;;;;;;34.19;32.44;99540.34;12242115;19;20018;-84
2023/08/18 15:51:50;;;;;;;4.10;2.38;;;;;;;34.19;32.04;99542.38;12239068;19;20022;-84
2023/08/18 15:55:52;;;;;;;;;;;;;;;34.12;32.49;99542.41;12246051;19;20416;-84
2023/08/18 15:59:53;;;;;;;5.93;2.10;;;;;;;34.04;32.43;99535.94;12241520;19;19923;-84
2023/08/18 16:03:55;;;;;;;5.57;3.10;;;;;;;34.03;33.16;99535.13;12239523;19;20111;-84
2023/08/18 16:07:57;;;;;;;;;;;;;;;33.99;33.71;99534.28;12241638;19;20018;-84
2023/08/18 16:11:58;;;;;;;4.75;1.98;;;;;;;33.98;33.97;99529.78;12242939;19;19915;-84
2023/08/18 16:16:00;;;;;;;;;;;;;;;34.03;34.68;99517.97;12240903;19;20011;-84
2023/08/18 16:20:02;;;;;;;;;;;;;;;34.01;33.68;99516.72;12244933;19;19903;-85
2023/08/18 16:24:04;;;;;;;5.90;2.35;;;;;;;33.83;34.45;99528.25;12239689;19;19931;-84
2023/08/18 16:28:06;;;;;;;7.95;2.15;;;;;;;33.66;34.51;99526.25;12242875;19;20767;-84
2023/08/18 16:32:08;;;;;;;6.47;2.15;;;;;;;33.45;34.98;99527.91;12242328;19;20028;-84
2023/08/18 16:36:11;;;;;;;6.63;2.20;;;;;;;33.22;36.32;99530.41;12265994;19;20047;-83
2023/08/18 16:40:13;;;;;;;6.80;2.50;;;;;;;33.02;37.79;99536.56;12276082;19;20003;-85
2023/08/18 16:44:15;;;;;;;7.43;2.35;;;;;;;32.86;37.71;99528.38;12231573;19;20115;-84
2023/08/18 16:48:17;;;;;;;4.00;2.17;;;;;;;32.70;37.26;99530.03;12236093;19;20010;-84
2023/08/18 16:52:18;;;;;;;5.63;2.35;;;;;;;32.63;38.69;99528.78;12230856;19;20010;-84
2023/08/18 16:56:20;;;;;;;4.53;2.05;;;;;;;32.53;40.05;99523.88;12231478;19;20023;-84
2023/08/18 17:00:22;;;;;;;;;;;;;;;32.40;39.23;99539.72;12231616;19;20469;-84
2023/08/18 17:04:26;;;;;;;7.65;2.40;;;;;;;32.39;41.05;99533.22;12230743;19;19963;-84
2023/08/18 17:08:28;;;;;;;7.18;2.53;;;;;;;32.18;41.45;99528.25;12232696;19;20010;-83
2023/08/18 17:12:30;;;;;;;5.05;2.35;;;;;;;32.13;42.83;99533.56;12229545;19;20026;-83
2023/08/18 17:16:32;;;;;;;5.97;2.35;;;;;;;32.53;42.33;99537.34;12232357;19;20089;-84
2023/08/18 17:20:33;;;;;;;5.85;2.28;;;;;;;32.54;44.27;99539.75;12229430;19;20034;-83
2023/08/18 17:24:35;;;;;;;6.22;2.30;;;;;;;32.22;46.11;99537.66;12232195;19;20027;-83
2023/08/18 17:28:37;;;;;;;6.25;2.40;;;;;;;31.96;47.69;99537.97;12232859;19;20010;-84
2023/08/18 17:32:38;;;;;;;7.20;2.55;;;;;;;31.67;48.08;99539.84;12227720;19;20070;-83
2023/08/18 17:36:40;;;;;;;7.05;2.65;;;;;;;31.41;49.99;99532.38;12227265;19;20015;-83
2023/08/18 17:40:44;;;;;;;5.57;2.70;;;;;;;31.20;51.49;99528.16;12230589;19;20040;-85
2023/08/18 17:44:46;;;;;;;9.90;2.35;;;;;;;30.95;53.40;99525.13;12226718;19;20006;-84
2023/08/18 17:48:48;;;;;;;8.55;2.92;;;;;;;30.74;54.43;99527.78;12241968;19;20018;-84
2023/08/18 17:52:49;;;;;;;;;;;;;;;30.54;54.19;99524.34;12238517;19;20070;-84
2023/08/18 17:56:51;;;;;;;6.57;2.67;;;;;;;30.36;55.73;99527.81;12241910;19;19939;-84
2023/08/18 18:00:53;;;;;;;6.10;2.55;;;;;;;30.32;56.15;99526.16;12240153;19;20018;-84
2023/08/18 18:04:55;;;;;;;8.27;2.80;;;;;;;30.33;56.04;99520.06;12237893;19;20015;-85
2023/08/18 18:08:56;;;;;;;7.28;2.78;;;;;;;30.00;57.76;99523.75;12238932;19;20768;-86
2023/08/18 18:13:02;;;;;;;7.63;2.83;;;;;;;29.63;58.34;99526.56;12244727;19;20010;-84
2023/08/18 18:17:03;;;;;;;8.38;2.72;;;;;;;29.33;59.10;99523.66;12242886;19;20006;-85
2023/08/18 18:21:05;;;;;;;5.93;2.63;;;;;;;29.02;59.25;99519.94;12241392;19;20393;-85
2023/08/18 18:25:07;;;;;;;7.40;3.05;;;;;;;28.76;59.97;99524.34;12242076;19;20011;-84
2023/08/18 18:29:09;;;;;;;6.20;2.78;;;;;;;28.55;60.44;99535.34;12242575;19;20022;-85
2023/08/18 18:33:11;;;;;;;9.32;3.72;;;;;;;28.31;61.38;99531.63;12238590;19;20027;-84
2023/08/18 18:37:13;;;;;;;10.10;4.10;;;;;;;28.13;62.10;99521.97;12237728;19;20022;-84